Darstellungsparameter: Aktuell verwendete Einstellungen:
Skalierung der Graphiken ... ?
xyx+y,   Skalierungsfaktor:      Skalierung: Modus: x, Faktor: 1
Darstellungszeitraum ... ?
Vom - - bis: - -   Zeitraum: 21.06.2022 - 21.06.2022
Min/Max/Avg-Anzeige ... ?
Zeige MMA aktuell
Zeige MMA Monat
Zeige MMA alles
Zeige --A aktuell
Zeige --A Monat
Zeige --A alles
Keine MMA-Anzeige
MMA:
Average (ber die Originaldaten)
MMA-Basis: 21.06.2022 - 21.06.2022
Quicknavigation für Darstellung... ?
Tage:      1T, 2T, 3T, 5T -1T -2T -3T -5T +1T +2T +3T +5T
Wochen: 1W, 2W, 3W -1W -2W -3W +1W +2W +3W
Monate: 1M, 3M, 6M -1M -3M -6M +1M +3M +6M
Jahre:    1J, 3J, 5J, 10J -1J -3J -5J -10J +1J +3J +5J +10J
Nutze für die Darstellung ... ?
Originaldaten oder Mittelwerte auf ...
Stundenbasis Tagesbasis Wochenbasis
Monatsbasis Jahresbasis      Datenbasis: Original-Daten
Darstellen als:
Statistik (Auto) Statistik J:M      Darstellung:
Zur Graphik,    zurück zur Übersicht aller Sensoren.
 
Tabellarische Datenbersicht: ?
 
Sensor: Nr:Datum:Temp:Abs-Feuchte:Windchill:Wind:
Aussen-T/F 1 21-06-2022 00:00:00 12.3 C 10.1 g/m*3 12.3 C 0 km/h
2 21-06-2022 00:05:00 12.2 C 10.04 g/m*3 12.2 C 0 km/h
3 21-06-2022 00:10:00 12.1 C 9.97 g/m*3 12.1 C 0 km/h
4 21-06-2022 00:15:00 11.9 C 9.85 g/m*3 11.9 C 0 km/h
5 21-06-2022 00:20:00 11.9 C 9.85 g/m*3 11.9 C 0 km/h
6 21-06-2022 00:25:00 11.8 C 9.79 g/m*3 11.8 C 0 km/h
7 21-06-2022 00:30:00 11.8 C 9.79 g/m*3 11.8 C 0 km/h
8 21-06-2022 00:35:00 11.7 C 9.73 g/m*3 11.7 C 0 km/h
9 21-06-2022 00:40:00 11.7 C 9.73 g/m*3 11.7 C 0 km/h
10 21-06-2022 00:45:00 11.6 C 9.67 g/m*3 11.6 C 0 km/h
11 21-06-2022 00:50:00 11.4 C 9.55 g/m*3 11.4 C 0 km/h
12 21-06-2022 00:55:00 11.4 C 9.55 g/m*3 11.4 C 0 km/h
13 21-06-2022 01:00:00 11.3 C 9.49 g/m*3 11.3 C 0 km/h
14 21-06-2022 01:05:00 11.2 C 9.43 g/m*3 11.2 C 0 km/h
15 21-06-2022 01:10:00 11.2 C 9.43 g/m*3 11.2 C 0 km/h
16 21-06-2022 01:15:00 11.1 C 9.37 g/m*3 11.1 C 0 km/h
17 21-06-2022 01:20:00 11 C 9.41 g/m*3 11 C 1.6 km/h
18 21-06-2022 01:25:00 11.1 C 9.47 g/m*3 11.1 C 1.6 km/h
19 21-06-2022 01:30:00 11 C 9.41 g/m*3 11 C 0 km/h
20 21-06-2022 01:35:00 11 C 9.41 g/m*3 11 C 3.2 km/h
21 21-06-2022 01:40:00 10.9 C 9.35 g/m*3 10.9 C 0 km/h
22 21-06-2022 01:45:00 10.9 C 9.35 g/m*3 10.9 C 0 km/h
23 21-06-2022 01:50:00 10.9 C 9.35 g/m*3 10.9 C 1.6 km/h
24 21-06-2022 01:55:00 11 C 9.51 g/m*3 11 C 1.6 km/h
25 21-06-2022 02:00:00 11.1 C 9.57 g/m*3 11.1 C 0 km/h
Sensor: Nr:Datum:Temp:Abs-Feuchte:Windchill:Wind:
Aussen-T/F 26 21-06-2022 02:05:00 11.2 C 9.63 g/m*3 11.2 C 1.6 km/h
27 21-06-2022 02:10:00 11.2 C 9.63 g/m*3 11.2 C 1.6 km/h
28 21-06-2022 02:15:00 11.2 C 9.63 g/m*3 11.2 C 0 km/h
29 21-06-2022 02:20:00 11.1 C 9.57 g/m*3 11.1 C 0 km/h
30 21-06-2022 02:25:00 10.9 C 9.35 g/m*3 10.9 C 0 km/h
31 21-06-2022 02:30:00 10.8 C 9.29 g/m*3 10.8 C 0 km/h
32 21-06-2022 02:35:00 10.7 C 9.23 g/m*3 10.7 C 1.6 km/h
33 21-06-2022 02:40:00 10.7 C 9.33 g/m*3 10.7 C 0 km/h
34 21-06-2022 02:45:00 10.7 C 9.33 g/m*3 10.7 C 1.6 km/h
35 21-06-2022 02:50:00 10.7 C 9.33 g/m*3 10.7 C 0 km/h
36 21-06-2022 02:55:00 10.7 C 9.33 g/m*3 10.7 C 0 km/h
37 21-06-2022 03:00:00 10.7 C 9.33 g/m*3 10.7 C 1.6 km/h
38 21-06-2022 03:05:00 10.7 C 9.33 g/m*3 10.7 C 0 km/h
39 21-06-2022 03:10:00 10.7 C 9.33 g/m*3 10.7 C 0 km/h
40 21-06-2022 03:15:00 10.7 C 9.33 g/m*3 10.7 C 0 km/h
41 21-06-2022 03:20:00 10.7 C 9.33 g/m*3 10.7 C 0 km/h
42 21-06-2022 03:25:00 10.6 C 9.27 g/m*3 10.6 C 1.6 km/h
43 21-06-2022 03:30:00 10.7 C 9.33 g/m*3 10.7 C 0 km/h
44 21-06-2022 03:35:00 10.8 C 9.39 g/m*3 10.8 C 4.8 km/h
45 21-06-2022 03:40:00 10.9 C 9.55 g/m*3 10.9 C 0 km/h
46 21-06-2022 03:45:00 10.9 C 9.55 g/m*3 10.9 C 0 km/h
47 21-06-2022 03:50:00 11 C 9.51 g/m*3 11 C 1.6 km/h
48 21-06-2022 03:55:00 11 C 9.51 g/m*3 11 C 0 km/h
49 21-06-2022 04:00:00 11 C 9.51 g/m*3 11 C 0 km/h
50 21-06-2022 04:05:00 11.1 C 9.57 g/m*3 11.1 C 0 km/h
Sensor: Nr:Datum:Temp:Abs-Feuchte:Windchill:Wind:
Aussen-T/F 51 21-06-2022 04:10:00 11.1 C 9.57 g/m*3 11.1 C 0 km/h
52 21-06-2022 04:15:00 11.1 C 9.57 g/m*3 11.1 C 0 km/h
53 21-06-2022 04:20:00 11 C 9.51 g/m*3 11 C 1.6 km/h
54 21-06-2022 04:25:00 10.9 C 9.45 g/m*3 10.9 C 0 km/h
55 21-06-2022 04:30:00 10.9 C 9.45 g/m*3 10.9 C 0 km/h
56 21-06-2022 04:35:00 10.8 C 9.39 g/m*3 10.8 C 0 km/h
57 21-06-2022 04:40:00 10.8 C 9.39 g/m*3 10.8 C 0 km/h
58 21-06-2022 04:45:00 10.8 C 9.39 g/m*3 10.8 C 0 km/h
59 21-06-2022 04:50:00 10.7 C 9.33 g/m*3 10.7 C 0 km/h
60 21-06-2022 04:55:00 10.7 C 9.33 g/m*3 10.7 C 0 km/h
61 21-06-2022 05:00:00 10.7 C 9.33 g/m*3 10.7 C 0 km/h
62 21-06-2022 05:05:00 10.6 C 9.27 g/m*3 10.6 C 1.6 km/h
63 21-06-2022 05:10:00 10.6 C 9.27 g/m*3 10.6 C 0 km/h
64 21-06-2022 05:15:00 10.6 C 9.27 g/m*3 10.6 C 0 km/h
65 21-06-2022 05:20:00 10.6 C 9.37 g/m*3 10.6 C 0 km/h
66 21-06-2022 05:25:00 10.7 C 9.33 g/m*3 10.7 C 0 km/h
67 21-06-2022 05:30:00 10.7 C 9.33 g/m*3 10.7 C 0 km/h
68 21-06-2022 05:35:00 10.7 C 9.43 g/m*3 10.7 C 0 km/h
69 21-06-2022 05:40:00 10.8 C 9.49 g/m*3 10.8 C 0 km/h
70 21-06-2022 05:45:00 10.8 C 9.49 g/m*3 10.8 C 1.6 km/h
71 21-06-2022 05:50:00 10.8 C 9.49 g/m*3 10.8 C 0 km/h
72 21-06-2022 05:55:00 10.8 C 9.49 g/m*3 10.8 C 0 km/h
73 21-06-2022 06:00:00 10.8 C 9.49 g/m*3 10.8 C 1.6 km/h
74 21-06-2022 06:05:00 10.8 C 9.49 g/m*3 10.8 C 0 km/h
75 21-06-2022 06:10:00 10.9 C 9.55 g/m*3 10.9 C 0 km/h
Sensor: Nr:Datum:Temp:Abs-Feuchte:Windchill:Wind:
Aussen-T/F 76 21-06-2022 06:15:00 10.8 C 9.49 g/m*3 10.8 C 0 km/h
77 21-06-2022 06:20:00 10.8 C 9.49 g/m*3 10.8 C 0 km/h
78 21-06-2022 06:25:00 10.8 C 9.49 g/m*3 10.8 C 1.6 km/h
79 21-06-2022 06:30:00 10.9 C 9.55 g/m*3 10.9 C 1.6 km/h
80 21-06-2022 06:35:00 10.9 C 9.55 g/m*3 10.9 C 3.2 km/h
81 21-06-2022 06:40:00 10.9 C 9.55 g/m*3 10.9 C 1.6 km/h
82 21-06-2022 06:45:00 10.9 C 9.55 g/m*3 10.9 C 1.6 km/h
83 21-06-2022 06:50:00 10.9 C 9.55 g/m*3 10.9 C 1.6 km/h
84 21-06-2022 06:55:00 10.9 C 9.55 g/m*3 10.9 C 1.6 km/h
85 21-06-2022 07:00:00 11 C 9.61 g/m*3 11 C 0 km/h
86 21-06-2022 07:05:00 11.1 C 9.67 g/m*3 11.1 C 1.6 km/h
87 21-06-2022 07:10:00 11.1 C 9.67 g/m*3 11.1 C 1.6 km/h
88 21-06-2022 07:15:00 11.2 C 9.73 g/m*3 11.2 C 0 km/h
89 21-06-2022 07:20:00 11.2 C 9.73 g/m*3 11.2 C 1.6 km/h
90 21-06-2022 07:25:00 11.2 C 9.73 g/m*3 11.2 C 0 km/h
91 21-06-2022 07:30:00 11.3 C 9.79 g/m*3 11.3 C 0 km/h
92 21-06-2022 07:35:00 11.4 C 9.85 g/m*3 11.4 C 0 km/h
93 21-06-2022 07:40:00 11.5 C 9.92 g/m*3 11.5 C 0 km/h
94 21-06-2022 07:45:00 11.6 C 9.98 g/m*3 11.6 C 0 km/h
95 21-06-2022 07:50:00 11.7 C 10.04 g/m*3 11.7 C 0 km/h
96 21-06-2022 07:55:00 11.7 C 10.04 g/m*3 11.7 C 0 km/h
97 21-06-2022 08:00:00 11.8 C 10.1 g/m*3 11.8 C 0 km/h
98 21-06-2022 08:05:00 11.9 C 10.17 g/m*3 11.9 C 0 km/h
99 21-06-2022 08:10:00 12 C 10.23 g/m*3 12 C 0 km/h
100 21-06-2022 08:15:00 12 C 10.23 g/m*3 12 C 1.6 km/h
Sensor: Nr:Datum:Temp:Abs-Feuchte:Windchill:Wind:
Aussen-T/F 101 21-06-2022 08:20:00 12.1 C 10.29 g/m*3 12.1 C 0 km/h
102 21-06-2022 08:25:00 12.2 C 10.36 g/m*3 12.2 C 4.8 km/h
103 21-06-2022 08:30:00 12.2 C 10.36 g/m*3 12.2 C 4.8 km/h
104 21-06-2022 08:35:00 12.2 C 10.36 g/m*3 12.2 C 4.8 km/h
105 21-06-2022 08:40:00 12.3 C 10.42 g/m*3 12.3 C 0 km/h
106 21-06-2022 08:45:00 12.4 C 10.49 g/m*3 12.4 C 0 km/h
107 21-06-2022 08:50:00 12.5 C 10.55 g/m*3 12.5 C 0 km/h
108 21-06-2022 08:55:00 12.6 C 10.62 g/m*3 12.6 C 0 km/h
109 21-06-2022 09:00:00 12.7 C 10.69 g/m*3 12.7 C 0 km/h
110 21-06-2022 09:05:00 12.9 C 10.82 g/m*3 12.9 C 0 km/h
111 21-06-2022 09:10:00 13.2 C 11.02 g/m*3 13.2 C 0 km/h
112 21-06-2022 09:15:00 13.5 C 11.23 g/m*3 13.5 C 0 km/h
113 21-06-2022 09:20:00 13.6 C 11.3 g/m*3 13.6 C 4.8 km/h
114 21-06-2022 09:25:00 13.7 C 11.25 g/m*3 13.7 C 0 km/h
115 21-06-2022 09:30:00 13.9 C 11.39 g/m*3 13.9 C 0 km/h
116 21-06-2022 09:35:00 14.2 C 11.48 g/m*3 14.2 C 1.6 km/h
117 21-06-2022 09:40:00 14.5 C 11.57 g/m*3 14.5 C 0 km/h
118 21-06-2022 09:45:00 14.8 C 11.53 g/m*3 14.8 C 9.7 km/h
119 21-06-2022 09:50:00 15.1 C 11.35 g/m*3 15.1 C 8.1 km/h
120 21-06-2022 09:55:00 15.4 C 11.43 g/m*3 15.4 C 4.8 km/h
121 21-06-2022 10:00:00 15.8 C 11.44 g/m*3 15.8 C 11.3 km/h
122 21-06-2022 10:05:00 16.1 C 11.38 g/m*3 16.1 C 11.3 km/h
123 21-06-2022 10:10:00 16.4 C 11.45 g/m*3 16.4 C 11.3 km/h
124 21-06-2022 10:15:00 16.6 C 11.44 g/m*3 16.6 C 6.4 km/h
125 21-06-2022 10:20:00 16.7 C 11.37 g/m*3 16.7 C 12.9 km/h
Sensor: Nr:Datum:Temp:Abs-Feuchte:Windchill:Wind:
Aussen-T/F 126 21-06-2022 10:25:00 16.9 C 11.51 g/m*3 16.9 C 12.9 km/h
127 21-06-2022 10:30:00 17.3 C 11.34 g/m*3 17.3 C 17.7 km/h
128 21-06-2022 10:35:00 17.8 C 11.38 g/m*3 17.8 C 17.7 km/h
129 21-06-2022 10:40:00 18.1 C 11.43 g/m*3 18.1 C 20.9 km/h
130 21-06-2022 10:45:00 18.3 C 11.26 g/m*3 18.3 C 17.7 km/h
131 21-06-2022 10:50:00 18.6 C 11.78 g/m*3 18.6 C 11.3 km/h
132 21-06-2022 10:55:00 18.8 C 11.6 g/m*3 18.8 C 3.2 km/h
133 21-06-2022 11:00:00 19.1 C 11.64 g/m*3 19.1 C 11.3 km/h
134 21-06-2022 11:05:00 19.3 C 11.94 g/m*3 19.3 C 4.8 km/h
135 21-06-2022 11:10:00 19.5 C 11.58 g/m*3 19.5 C 4.8 km/h
136 21-06-2022 11:15:00 19.7 C 11.38 g/m*3 19.7 C 4.8 km/h
137 21-06-2022 11:20:00 19.9 C 11.34 g/m*3 19.9 C 11.3 km/h
138 21-06-2022 11:25:00 20 C 10.89 g/m*3 20 C 12.9 km/h
139 21-06-2022 11:30:00 19.9 C 11.34 g/m*3 19.9 C 6.4 km/h
140 21-06-2022 11:35:00 20.1 C 11.13 g/m*3 20.1 C 8.1 km/h
141 21-06-2022 11:40:00 20.2 C 11.19 g/m*3 20.2 C 9.7 km/h
142 21-06-2022 11:45:00 20.3 C 11.43 g/m*3 20.3 C 12.9 km/h
143 21-06-2022 11:50:00 20.4 C 11.14 g/m*3 20.4 C 8.1 km/h
144 21-06-2022 11:55:00 20.4 C 11.14 g/m*3 20.4 C 12.9 km/h
145 21-06-2022 12:00:00 20.6 C 11.99 g/m*3 20.6 C 6.4 km/h
146 21-06-2022 12:05:00 20.7 C 11.7 g/m*3 20.7 C 9.7 km/h
147 21-06-2022 12:10:00 20.8 C 11.77 g/m*3 20.8 C 11.3 km/h
148 21-06-2022 12:15:00 20.8 C 11.77 g/m*3 20.8 C 6.4 km/h
149 21-06-2022 12:20:00 20.8 C 11.77 g/m*3 20.8 C 6.4 km/h
150 21-06-2022 12:25:00 20.9 C 11.84 g/m*3 20.9 C 6.4 km/h
Sensor: Nr:Datum:Temp:Abs-Feuchte:Windchill:Wind:
Aussen-T/F 151 21-06-2022 12:30:00 21.1 C 11.79 g/m*3 21.1 C 12.9 km/h
152 21-06-2022 12:35:00 20.9 C 11.66 g/m*3 20.9 C 12.9 km/h
153 21-06-2022 12:40:00 20.8 C 12.13 g/m*3 20.8 C 6.4 km/h
154 21-06-2022 12:45:00 20.8 C 12.49 g/m*3 20.8 C 0 km/h
155 21-06-2022 12:50:00 20.8 C 11.95 g/m*3 20.8 C 11.3 km/h
156 21-06-2022 12:55:00 20.8 C 11.77 g/m*3 20.8 C 12.9 km/h
157 21-06-2022 13:00:00 20.9 C 12.38 g/m*3 20.9 C 11.3 km/h
158 21-06-2022 13:05:00 21.1 C 12.34 g/m*3 21.1 C 6.4 km/h
159 21-06-2022 13:10:00 21.2 C 12.23 g/m*3 21.2 C 4.8 km/h
160 21-06-2022 13:15:00 21.2 C 12.05 g/m*3 21.2 C 9.7 km/h
161 21-06-2022 13:20:00 21.1 C 12.16 g/m*3 21.1 C 12.9 km/h
162 21-06-2022 13:25:00 20.9 C 12.02 g/m*3 20.9 C 6.4 km/h
163 21-06-2022 13:30:00 20.8 C 12.13 g/m*3 20.8 C 8.1 km/h
164 21-06-2022 13:35:00 20.8 C 12.49 g/m*3 20.8 C 6.4 km/h
165 21-06-2022 13:40:00 20.7 C 12.06 g/m*3 20.7 C 8.1 km/h
166 21-06-2022 13:45:00 20.6 C 11.99 g/m*3 20.6 C 6.4 km/h
167 21-06-2022 13:50:00 20.6 C 11.99 g/m*3 20.6 C 6.4 km/h
168 21-06-2022 13:55:00 20.7 C 12.06 g/m*3 20.7 C 8.1 km/h
169 21-06-2022 14:00:00 21.2 C 12.42 g/m*3 21.2 C 6.4 km/h
170 21-06-2022 14:05:00 21.8 C 12.47 g/m*3 21.8 C 11.3 km/h
171 21-06-2022 14:10:00 22 C 12.62 g/m*3 22 C 14.5 km/h
172 21-06-2022 14:15:00 22.1 C 12.49 g/m*3 22.1 C 6.4 km/h
173 21-06-2022 14:20:00 22.4 C 12.51 g/m*3 22.4 C 11.3 km/h
174 21-06-2022 14:25:00 22.8 C 12.6 g/m*3 22.8 C 19.3 km/h
175 21-06-2022 14:30:00 22.8 C 11.58 g/m*3 22.8 C 14.5 km/h
Sensor: Nr:Datum:Temp:Abs-Feuchte:Windchill:Wind:
Aussen-T/F 176 21-06-2022 14:35:00 22.8 C 11.58 g/m*3 22.8 C 9.7 km/h
177 21-06-2022 14:40:00 22.8 C 12.19 g/m*3 22.8 C 12.9 km/h
178 21-06-2022 14:45:00 22.7 C 11.31 g/m*3 22.7 C 17.7 km/h
179 21-06-2022 14:50:00 22.8 C 11.58 g/m*3 22.8 C 11.3 km/h
180 21-06-2022 14:55:00 22.9 C 11.44 g/m*3 22.9 C 9.7 km/h
181 21-06-2022 15:00:00 23.2 C 12.06 g/m*3 23.2 C 11.3 km/h
182 21-06-2022 15:05:00 23.4 C 11.78 g/m*3 23.4 C 14.5 km/h
183 21-06-2022 15:10:00 23.5 C 11.42 g/m*3 23.5 C 6.4 km/h
184 21-06-2022 15:15:00 23.6 C 11.91 g/m*3 23.6 C 9.7 km/h
185 21-06-2022 15:20:00 23.7 C 11.76 g/m*3 23.7 C 8.1 km/h
186 21-06-2022 15:25:00 23.8 C 11.62 g/m*3 23.8 C 14.5 km/h
187 21-06-2022 15:30:00 23.9 C 11.9 g/m*3 23.9 C 6.4 km/h
188 21-06-2022 15:35:00 24.1 C 12.03 g/m*3 24.1 C 3.2 km/h
189 21-06-2022 15:40:00 23.9 C 12.11 g/m*3 23.9 C 4.8 km/h
190 21-06-2022 15:45:00 23.9 C 11.25 g/m*3 23.9 C 12.9 km/h
191 21-06-2022 15:50:00 23.7 C 11.12 g/m*3 23.7 C 14.5 km/h
192 21-06-2022 15:55:00 23.7 C 11.55 g/m*3 23.7 C 11.3 km/h
193 21-06-2022 16:00:00 23.8 C 11.4 g/m*3 23.8 C 12.9 km/h
194 21-06-2022 16:05:00 24.1 C 11.6 g/m*3 24.1 C 6.4 km/h
195 21-06-2022 16:10:00 24.3 C 10.84 g/m*3 24.3 C 12.9 km/h
196 21-06-2022 16:15:00 24.3 C 11.29 g/m*3 24.3 C 11.3 km/h
197 21-06-2022 16:20:00 24.4 C 11.35 g/m*3 24.4 C 12.9 km/h
198 21-06-2022 16:25:00 24.4 C 11.13 g/m*3 24.4 C 11.3 km/h
199 21-06-2022 16:30:00 24.7 C 12 g/m*3 24.7 C 12.9 km/h
200 21-06-2022 16:35:00 24.9 C 11.67 g/m*3 24.9 C 11.3 km/h
Sensor: Nr:Datum:Temp:Abs-Feuchte:Windchill:Wind:
Aussen-T/F 201 21-06-2022 16:40:00 25.2 C 11.41 g/m*3 25.2 C 4.8 km/h
202 21-06-2022 16:45:00 25.3 C 11.24 g/m*3 25.3 C 11.3 km/h
203 21-06-2022 16:50:00 25.5 C 11.6 g/m*3 25.5 C 6.4 km/h
204 21-06-2022 16:55:00 25.6 C 11.43 g/m*3 25.6 C 6.4 km/h
205 21-06-2022 17:00:00 25.7 C 11.01 g/m*3 25.7 C 12.9 km/h
206 21-06-2022 17:05:00 25.7 C 11.49 g/m*3 25.7 C 6.4 km/h
207 21-06-2022 17:10:00 25.9 C 11.14 g/m*3 25.9 C 8.1 km/h
208 21-06-2022 17:15:00 26.2 C 11.57 g/m*3 26.2 C 9.7 km/h
209 21-06-2022 17:20:00 26.1 C 10.77 g/m*3 26.1 C 12.9 km/h
210 21-06-2022 17:25:00 25.9 C 10.89 g/m*3 25.9 C 6.4 km/h
211 21-06-2022 17:30:00 25.8 C 10.83 g/m*3 25.8 C 8.1 km/h
212 21-06-2022 17:35:00 26 C 10.71 g/m*3 26 C 4.8 km/h
213 21-06-2022 17:40:00 26.2 C 11.32 g/m*3 26.2 C 4.8 km/h
214 21-06-2022 17:45:00 26.4 C 11.45 g/m*3 26.4 C 6.4 km/h
215 21-06-2022 17:50:00 26.4 C 10.7 g/m*3 26.4 C 9.7 km/h
216 21-06-2022 17:55:00 26.4 C 11.45 g/m*3 26.4 C 9.7 km/h
217 21-06-2022 18:00:00 26.4 C 11.45 g/m*3 26.4 C 8.1 km/h
218 21-06-2022 18:05:00 26.4 C 10.95 g/m*3 26.4 C 9.7 km/h
219 21-06-2022 18:10:00 26.3 C 11.39 g/m*3 26.3 C 8.1 km/h
220 21-06-2022 18:15:00 26.3 C 11.14 g/m*3 26.3 C 8.1 km/h
221 21-06-2022 18:20:00 26.2 C 11.08 g/m*3 26.2 C 8.1 km/h
222 21-06-2022 18:25:00 25.9 C 11.14 g/m*3 25.9 C 6.4 km/h
223 21-06-2022 18:30:00 25.9 C 11.38 g/m*3 25.9 C 6.4 km/h
224 21-06-2022 18:35:00 25.8 C 11.07 g/m*3 25.8 C 6.4 km/h
225 21-06-2022 18:40:00 25.6 C 11.43 g/m*3 25.6 C 8.1 km/h
Sensor: Nr:Datum:Temp:Abs-Feuchte:Windchill:Wind:
Aussen-T/F 226 21-06-2022 18:45:00 25.5 C 11.36 g/m*3 25.5 C 9.7 km/h
227 21-06-2022 18:50:00 25.3 C 11.94 g/m*3 25.3 C 8.1 km/h
228 21-06-2022 18:55:00 25.2 C 11.87 g/m*3 25.2 C 4.8 km/h
229 21-06-2022 19:00:00 25.2 C 11.64 g/m*3 25.2 C 8.1 km/h
230 21-06-2022 19:05:00 25 C 11.74 g/m*3 25 C 11.3 km/h
231 21-06-2022 19:10:00 24.9 C 11.45 g/m*3 24.9 C 9.7 km/h
232 21-06-2022 19:15:00 24.8 C 11.61 g/m*3 24.8 C 6.4 km/h
233 21-06-2022 19:20:00 24.8 C 11.61 g/m*3 24.8 C 9.7 km/h
234 21-06-2022 19:25:00 24.7 C 11.54 g/m*3 24.7 C 11.3 km/h
235 21-06-2022 19:30:00 24.6 C 11.48 g/m*3 24.6 C 9.7 km/h
236 21-06-2022 19:35:00 24.5 C 11.41 g/m*3 24.5 C 11.3 km/h
237 21-06-2022 19:40:00 24.4 C 11.57 g/m*3 24.4 C 6.4 km/h
238 21-06-2022 19:45:00 24.3 C 11.51 g/m*3 24.3 C 9.7 km/h
239 21-06-2022 19:50:00 24.3 C 11.51 g/m*3 24.3 C 4.8 km/h
240 21-06-2022 19:55:00 24.2 C 11.44 g/m*3 24.2 C 6.4 km/h
241 21-06-2022 20:00:00 24.1 C 11.38 g/m*3 24.1 C 9.7 km/h
242 21-06-2022 20:05:00 23.9 C 11.25 g/m*3 23.9 C 9.7 km/h
243 21-06-2022 20:10:00 23.7 C 11.34 g/m*3 23.7 C 6.4 km/h
244 21-06-2022 20:15:00 23.6 C 11.48 g/m*3 23.6 C 6.4 km/h
245 21-06-2022 20:20:00 23.4 C 11.14 g/m*3 23.4 C 8.1 km/h
246 21-06-2022 20:25:00 23.3 C 11.08 g/m*3 23.3 C 12.9 km/h
247 21-06-2022 20:30:00 23.2 C 11.23 g/m*3 23.2 C 9.7 km/h
248 21-06-2022 20:35:00 23.1 C 10.96 g/m*3 23.1 C 9.7 km/h
249 21-06-2022 20:40:00 22.8 C 10.97 g/m*3 22.8 C 9.7 km/h
250 21-06-2022 20:45:00 22.7 C 11.11 g/m*3 22.7 C 6.4 km/h
Sensor: Nr:Datum:Temp:Abs-Feuchte:Windchill:Wind:
Aussen-T/F 251 21-06-2022 20:50:00 22.6 C 11.65 g/m*3 22.6 C 0 km/h
252 21-06-2022 20:55:00 22.6 C 12.86 g/m*3 22.6 C 0 km/h
253 21-06-2022 21:00:00 22.6 C 13.26 g/m*3 22.6 C 0 km/h
254 21-06-2022 21:05:00 22.4 C 13.5 g/m*3 22.4 C 0 km/h
255 21-06-2022 21:10:00 22.2 C 13.55 g/m*3 22.2 C 0 km/h
256 21-06-2022 21:15:00 21.9 C 13.51 g/m*3 21.9 C 0 km/h
257 21-06-2022 21:20:00 21.6 C 13.47 g/m*3 21.6 C 0 km/h
258 21-06-2022 21:25:00 21.2 C 13.16 g/m*3 21.2 C 0 km/h
259 21-06-2022 21:30:00 20.8 C 13.04 g/m*3 20.8 C 0 km/h
260 21-06-2022 21:35:00 20.4 C 12.91 g/m*3 20.4 C 0 km/h
261 21-06-2022 21:40:00 20.1 C 12.69 g/m*3 20.1 C 0 km/h
262 21-06-2022 21:45:00 19.7 C 12.57 g/m*3 19.7 C 0 km/h
263 21-06-2022 21:50:00 19.3 C 12.44 g/m*3 19.3 C 0 km/h
264 21-06-2022 21:55:00 18.8 C 12.08 g/m*3 18.8 C 0 km/h
265 21-06-2022 22:00:00 18.6 C 12.26 g/m*3 18.6 C 0 km/h
266 21-06-2022 22:05:00 18.3 C 12.35 g/m*3 18.3 C 0 km/h
267 21-06-2022 22:10:00 18.1 C 12.21 g/m*3 18.1 C 0 km/h
268 21-06-2022 22:15:00 17.9 C 12.06 g/m*3 17.9 C 0 km/h
269 21-06-2022 22:20:00 17.7 C 12.07 g/m*3 17.7 C 0 km/h
270 21-06-2022 22:25:00 17.5 C 12.08 g/m*3 17.5 C 0 km/h
271 21-06-2022 22:30:00 17.3 C 11.93 g/m*3 17.3 C 0 km/h
272 21-06-2022 22:35:00 17.2 C 11.86 g/m*3 17.2 C 0 km/h
273 21-06-2022 22:40:00 17.1 C 11.94 g/m*3 17.1 C 0 km/h
274 21-06-2022 22:45:00 17 C 12.01 g/m*3 17 C 0 km/h
275 21-06-2022 22:50:00 16.8 C 11.87 g/m*3 16.8 C 0 km/h
Sensor: Nr:Datum:Temp:Abs-Feuchte:Windchill:Wind:
Aussen-T/F 276 21-06-2022 22:55:00 16.7 C 11.8 g/m*3 16.7 C 0 km/h
277 21-06-2022 23:00:00 16.6 C 11.72 g/m*3 16.6 C 0 km/h
278 21-06-2022 23:05:00 16.4 C 11.58 g/m*3 16.4 C 0 km/h
279 21-06-2022 23:10:00 16.2 C 11.45 g/m*3 16.2 C 0 km/h
280 21-06-2022 23:15:00 16.1 C 11.51 g/m*3 16.1 C 0 km/h
281 21-06-2022 23:20:00 16.1 C 11.65 g/m*3 16.1 C 0 km/h
282 21-06-2022 23:25:00 15.9 C 11.51 g/m*3 15.9 C 0 km/h
283 21-06-2022 23:30:00 15.8 C 11.44 g/m*3 15.8 C 0 km/h
284 21-06-2022 23:35:00 15.8 C 11.58 g/m*3 15.8 C 0 km/h
285 21-06-2022 23:40:00 15.8 C 11.58 g/m*3 15.8 C 0 km/h
286 21-06-2022 23:45:00 15.8 C 11.58 g/m*3 15.8 C 0 km/h
287 21-06-2022 23:50:00 15.8 C 11.71 g/m*3 15.8 C 0 km/h
288 21-06-2022 23:55:00 15.8 C 11.71 g/m*3 15.8 C 0 km/h

Legende:
   Min
   Max


Maximal/Minimal-Werte vom 21.06.2022 - 21.06.2022

Sensor Min Max Avg
Temp
(Aussen-T/F)
10.6 °C
21-06-2022  03:25:00
26.4 °C
21-06-2022  17:45:00
17.44 °C
Abs-Feuchte
(Aussen-T/F)
9.23 g/m*3
21-06-2022  02:35:00
13.55 g/m*3
21-06-2022  21:10:00
10.87 g/m*3
Windchill
(Aussen-T/F)
10.6 C
21-06-2022  03:25:00
26.4 C
21-06-2022  17:45:00
17.38 C

Die Daten stammen von einer Davis Vantage Pro 2 Wetter-Station und werden unter Linux mit der Software wview2wettercgi und aufbereitet. Alle Angaben erfolgen ohne Gewähr für ihre Vollständigkeit oder Richtigkeit.
Kontakt: Rainer Krienke krienke@uni-koblenz.de . Meine Webseiten an der Uni Koblenz oder privat.
Version: $Revision: 0.78 $